createdAt,value
2023-05-21T00:01:47.840Z,94.88
2023-05-21T00:16:47.870Z,94.92
2023-05-21T00:31:47.607Z,95.53
2023-05-21T00:46:47.381Z,95.43
2023-05-21T01:01:47.239Z,95.94
2023-05-21T01:16:47.146Z,97.11
2023-05-21T01:31:46.877Z,97.41
2023-05-21T01:46:46.867Z,98.07
2023-05-21T02:01:46.594Z,98.93
2023-05-21T02:16:46.409Z,99.39
2023-05-21T02:31:46.240Z,99.99
2023-05-21T02:46:46.051Z,99.99
2023-05-21T03:01:45.931Z,99.99
2023-05-21T03:16:45.766Z,99.99
2023-05-21T03:31:45.666Z,99.99
2023-05-21T03:46:45.505Z,99.99
2023-05-21T04:01:45.277Z,99.99
2023-05-21T04:16:45.085Z,99.99
2023-05-21T04:31:45.005Z,99.63
2023-05-21T04:46:44.842Z,97.60
2023-05-21T05:01:44.613Z,95.54
2023-05-21T05:16:44.496Z,92.97
2023-05-21T05:31:44.283Z,91.06
2023-05-21T05:46:44.176Z,87.26
2023-05-21T06:01:43.966Z,83.34
2023-05-21T06:16:43.818Z,81.30
2023-05-21T06:31:43.652Z,81.01
2023-05-21T06:46:43.484Z,79.56
2023-05-21T07:01:43.444Z,79.42
2023-05-21T07:16:43.184Z,77.29
2023-05-21T07:31:43.069Z,68.52
2023-05-21T07:46:43.135Z,64.00
2023-05-21T08:01:42.687Z,63.31
2023-05-21T08:16:42.630Z,58.91
2023-05-21T08:31:42.527Z,57.69
2023-05-21T08:46:42.260Z,57.56
2023-05-21T09:01:42.168Z,54.60
2023-05-21T09:16:41.967Z,54.23
2023-05-21T09:31:42.933Z,51.57
2023-05-21T09:46:42.142Z,53.63
2023-05-21T10:01:41.445Z,52.66
2023-05-21T10:16:41.465Z,52.26
2023-05-21T10:31:41.120Z,52.91
2023-05-21T10:46:40.946Z,47.44
2023-05-21T11:01:40.980Z,44.90
2023-05-21T11:16:40.903Z,45.71
2023-05-21T11:31:40.618Z,45.93
2023-05-21T11:46:40.447Z,44.87
2023-05-21T12:01:40.176Z,41.65
2023-05-21T12:16:40.250Z,41.49
2023-05-21T12:31:39.941Z,41.14
2023-05-21T12:46:39.867Z,43.91
2023-05-21T13:01:39.640Z,42.46
2023-05-21T13:16:39.382Z,41.89
2023-05-21T13:31:39.298Z,44.05
2023-05-21T13:46:39.198Z,41.67
2023-05-21T14:01:38.899Z,41.61
2023-05-21T14:16:38.814Z,41.59
2023-05-21T14:31:38.696Z,41.49
2023-05-21T14:46:38.585Z,41.04
2023-05-21T15:01:38.349Z,42.64
2023-05-21T15:16:39.171Z,42.66
2023-05-21T15:31:38.036Z,42.17
2023-05-21T15:46:37.852Z,42.11
2023-05-21T16:01:37.639Z,42.43
2023-05-21T16:16:37.536Z,42.03
2023-05-21T16:31:37.354Z,40.86
2023-05-21T16:46:37.268Z,41.58
2023-05-21T17:01:37.124Z,43.01
2023-05-21T17:16:36.970Z,43.13
2023-05-21T17:31:36.783Z,44.54
2023-05-21T17:46:36.588Z,44.36
2023-05-21T18:01:36.467Z,44.60
2023-05-21T18:16:37.344Z,44.23
2023-05-21T18:31:36.099Z,47.68
2023-05-21T18:46:35.931Z,47.83
2023-05-21T19:01:35.832Z,48.05
2023-05-21T19:16:35.734Z,49.41
2023-05-21T19:31:35.417Z,49.64
2023-05-21T19:46:35.313Z,52.89
2023-05-21T20:01:35.160Z,51.82
2023-05-21T20:16:36.815Z,53.85
2023-05-21T20:31:34.914Z,54.38
2023-05-21T20:46:34.669Z,57.14
2023-05-21T21:01:34.509Z,57.77
2023-05-21T21:16:34.392Z,58.67
2023-05-21T21:31:36.540Z,59.30
2023-05-21T21:46:34.117Z,60.24
2023-05-21T22:01:34.050Z,58.73
2023-05-21T22:16:33.709Z,58.09
2023-05-21T22:31:33.648Z,57.29
2023-05-21T22:46:33.400Z,58.33
2023-05-21T23:01:33.297Z,57.82
2023-05-21T23:16:33.080Z,56.74
2023-05-21T23:31:32.947Z,56.64
2023-05-21T23:46:32.733Z,56.57
